createdAt,value
2018-09-11T00:02:08.636Z,8.10
2018-09-11T00:04:37.075Z,12.83
2018-09-11T00:07:05.506Z,10.90
2018-09-11T00:09:34.047Z,14.40
2018-09-11T00:12:02.596Z,11.07
2018-09-11T00:14:31.103Z,13.57
2018-09-11T00:17:00.539Z,14.80
2018-09-11T00:19:29.020Z,11.33
2018-09-11T00:21:57.708Z,10.50
2018-09-11T00:24:26.276Z,12.37
2018-09-11T00:26:54.836Z,11.07
2018-09-11T00:29:24.202Z,13.03
2018-09-11T00:31:52.926Z,12.60
2018-09-11T00:34:33.963Z,9.40
2018-09-11T00:37:04.832Z,8.27
2018-09-11T00:39:43.893Z,14.80
2018-09-11T00:42:12.998Z,16.07
2018-09-11T00:44:42.041Z,10.60
2018-09-11T00:47:17.380Z,10.37
2018-09-11T00:49:46.385Z,12.73
2018-09-11T00:52:14.969Z,9.23
2018-09-11T00:54:43.595Z,15.00
2018-09-11T00:57:12.118Z,14.33
2018-09-11T00:59:40.705Z,12.43
2018-09-11T01:02:09.287Z,10.83
2018-09-11T01:04:37.867Z,12.77
2018-09-11T01:07:06.525Z,13.50
2018-09-11T01:09:34.973Z,15.53
2018-09-11T01:12:03.468Z,12.50
2018-09-11T01:14:32.079Z,12.40
2018-09-11T01:17:00.514Z,14.23
2018-09-11T01:19:29.163Z,16.67
2018-09-11T01:21:57.694Z,19.63
2018-09-11T01:24:26.229Z,14.33
2018-09-11T01:26:54.702Z,15.30
2018-09-11T01:29:23.115Z,12.37
2018-09-11T01:31:51.545Z,18.73
2018-09-11T01:34:20.069Z,14.40
2018-09-11T01:36:48.532Z,18.23
2018-09-11T01:39:17.012Z,17.70
2018-09-11T01:41:45.405Z,17.83
2018-09-11T01:44:13.764Z,14.30
2018-09-11T01:46:42.233Z,14.63
2018-09-11T01:49:10.676Z,17.40
2018-09-11T01:51:39.221Z,13.83
2018-09-11T01:54:07.610Z,18.63
2018-09-11T01:56:35.979Z,14.37
2018-09-11T01:59:04.354Z,15.83
2018-09-11T02:01:32.752Z,21.50
2018-09-11T02:04:01.226Z,16.50
2018-09-11T02:06:29.681Z,14.97
2018-09-11T02:08:58.088Z,14.40
2018-09-11T02:11:26.444Z,24.53
2018-09-11T02:13:54.796Z,15.40
2018-09-11T02:16:23.262Z,20.23
2018-09-11T02:18:52.606Z,16.67
2018-09-11T02:21:21.059Z,27.17
2018-09-11T02:23:49.509Z,18.20
2018-09-11T02:26:17.947Z,16.37
2018-09-11T02:28:46.471Z,20.30
2018-09-11T02:31:14.915Z,19.07
2018-09-11T02:33:43.344Z,22.00
2018-09-11T02:36:11.794Z,25.70
2018-09-11T02:38:40.405Z,20.63
2018-09-11T02:41:08.870Z,20.03
2018-09-11T02:43:37.320Z,16.93
2018-09-11T02:46:05.687Z,26.40
2018-09-11T02:48:34.049Z,18.47
2018-09-11T02:51:02.417Z,16.57
2018-09-11T02:53:30.759Z,15.77
2018-09-11T02:55:59.137Z,21.17
2018-09-11T02:58:27.603Z,17.87
2018-09-11T03:00:56.050Z,21.80
2018-09-11T03:03:24.503Z,19.27
2018-09-11T03:05:53.024Z,18.70
2018-09-11T03:08:21.597Z,19.53
2018-09-11T03:10:49.936Z,20.70
2018-09-11T03:13:18.352Z,22.73
2018-09-11T03:15:46.732Z,21.67
2018-09-11T03:18:15.112Z,18.33
2018-09-11T03:20:43.494Z,13.20
2018-09-11T03:23:12.001Z,15.27
2018-09-11T03:25:40.411Z,15.50
2018-09-11T03:28:08.768Z,16.30
2018-09-11T03:30:37.155Z,19.33
2018-09-11T03:33:05.628Z,13.27
2018-09-11T03:35:33.992Z,20.93
2018-09-11T03:38:02.396Z,15.07
2018-09-11T03:40:30.847Z,17.63
2018-09-11T03:42:59.412Z,17.07
2018-09-11T03:45:27.825Z,19.67
2018-09-11T03:47:56.228Z,14.97
2018-09-11T03:50:25.292Z,19.43
2018-09-11T03:52:53.789Z,24.13
2018-09-11T03:55:22.232Z,26.90
2018-09-11T03:57:50.649Z,19.23
2018-09-11T04:00:19.064Z,23.47
2018-09-11T04:02:47.547Z,24.67
2018-09-11T04:05:15.964Z,14.77
2018-09-11T04:07:44.253Z,23.63
2018-09-11T04:10:12.659Z,21.80
2018-09-11T04:12:41.164Z,17.27
2018-09-11T04:15:09.829Z,17.70
2018-09-11T04:17:40.428Z,20.67
2018-09-11T04:20:10.308Z,25.23
2018-09-11T04:22:39.604Z,20.17
2018-09-11T04:25:08.287Z,19.17
2018-09-11T04:27:36.695Z,21.10
2018-09-11T04:30:05.045Z,16.77
2018-09-11T04:32:33.469Z,17.63
2018-09-11T04:35:01.860Z,21.00
2018-09-11T04:37:30.324Z,20.53
2018-09-11T04:39:58.687Z,15.47
2018-09-11T04:42:27.080Z,17.40
2018-09-11T04:44:55.463Z,19.67
2018-09-11T04:47:23.845Z,19.70
2018-09-11T04:52:26.992Z,17.40
2018-09-11T04:54:55.403Z,21.13
2018-09-11T04:57:23.825Z,17.13
2018-09-11T04:59:52.377Z,19.83
2018-09-11T05:02:20.798Z,13.57
2018-09-11T05:04:49.260Z,12.23
2018-09-11T05:07:17.708Z,17.97
2018-09-11T05:09:46.133Z,12.07
2018-09-11T05:12:14.602Z,15.67
2018-09-11T05:14:42.989Z,16.10
2018-09-11T05:17:12.246Z,13.90
2018-09-11T05:19:40.627Z,14.07
2018-09-11T05:22:11.493Z,13.90
2018-09-11T05:24:40.619Z,14.03
2018-09-11T05:27:09.379Z,14.13
2018-09-11T05:29:37.969Z,14.90
2018-09-11T05:32:07.427Z,13.30
2018-09-11T05:34:35.884Z,12.23
2018-09-11T05:37:04.646Z,15.43
2018-09-11T05:39:33.135Z,14.30
2018-09-11T05:42:01.665Z,12.67
2018-09-11T05:44:30.779Z,11.80
2018-09-11T05:46:59.302Z,10.70
2018-09-11T05:49:27.694Z,10.60
2018-09-11T05:51:56.163Z,12.17
2018-09-11T05:54:25.542Z,13.47
2018-09-11T05:56:53.911Z,14.10
2018-09-11T05:59:23.440Z,15.13
2018-09-11T06:01:52.084Z,11.67
2018-09-11T06:04:20.530Z,15.03
2018-09-11T06:06:55.621Z,13.57
2018-09-11T06:09:24.148Z,12.40
2018-09-11T06:11:52.557Z,12.43
2018-09-11T06:14:21.049Z,19.77
2018-09-11T06:16:49.672Z,13.63
2018-09-11T06:19:18.792Z,16.20
2018-09-11T06:21:47.219Z,11.47
2018-09-11T06:24:15.644Z,14.77
2018-09-11T06:26:44.018Z,14.63
2018-09-11T06:29:12.475Z,19.23
2018-09-11T06:31:40.837Z,11.60
2018-09-11T06:34:09.209Z,13.77
2018-09-11T06:36:37.980Z,12.70
2018-09-11T06:39:09.965Z,11.40
2018-09-11T06:41:38.422Z,15.50
2018-09-11T06:44:06.970Z,12.00
2018-09-11T06:46:35.423Z,11.23
2018-09-11T06:49:04.149Z,12.27
2018-09-11T06:51:32.597Z,10.93
2018-09-11T06:54:01.444Z,11.60
2018-09-11T06:56:30.078Z,11.63
2018-09-11T06:59:03.675Z,14.20
2018-09-11T07:01:39.409Z,14.67
2018-09-11T07:04:09.675Z,11.07
2018-09-11T07:06:38.084Z,13.13
2018-09-11T07:09:08.986Z,13.57
2018-09-11T07:11:37.529Z,12.53
2018-09-11T07:14:05.920Z,13.63
2018-09-11T07:16:34.484Z,16.23
2018-09-11T07:19:09.451Z,10.63
2018-09-11T07:21:37.859Z,10.77
2018-09-11T07:24:06.439Z,13.03
2018-09-11T07:26:34.875Z,15.07
2018-09-11T07:29:03.304Z,7.27
2018-09-11T07:31:31.662Z,10.50
2018-09-11T07:34:00.143Z,12.40
2018-09-11T07:36:31.690Z,11.27
2018-09-11T07:39:07.425Z,10.03
2018-09-11T07:41:36.154Z,9.90
2018-09-11T07:44:04.659Z,8.47
2018-09-11T07:46:32.993Z,8.70
2018-09-11T07:49:01.401Z,10.60
2018-09-11T07:51:29.805Z,8.47
2018-09-11T07:53:58.406Z,10.83
2018-09-11T07:56:26.776Z,11.03
2018-09-11T07:58:55.165Z,10.73
2018-09-11T08:01:23.568Z,10.60
2018-09-11T08:03:52.014Z,8.17
2018-09-11T08:06:20.431Z,9.00
2018-09-11T08:08:49.280Z,7.57
2018-09-11T08:11:18.896Z,10.13
2018-09-11T08:13:47.312Z,12.07
2018-09-11T08:16:15.723Z,12.50
2018-09-11T08:18:47.425Z,8.83
2018-09-11T08:21:15.798Z,10.60
2018-09-11T08:23:44.193Z,10.60
2018-09-11T08:26:12.557Z,9.47
2018-09-11T08:28:40.987Z,11.10
2018-09-11T08:31:09.452Z,11.50
2018-09-11T08:33:38.078Z,7.87
2018-09-11T08:36:06.604Z,10.97
2018-09-11T08:38:35.031Z,9.17
2018-09-11T08:41:03.655Z,9.67
2018-09-11T08:43:32.089Z,9.50
2018-09-11T08:46:00.582Z,11.80
2018-09-11T08:48:29.008Z,7.87
2018-09-11T08:50:57.458Z,9.90
2018-09-11T08:53:30.994Z,8.03
2018-09-11T08:55:59.714Z,8.50
2018-09-11T08:58:28.442Z,8.90
2018-09-11T09:00:57.530Z,9.90
2018-09-11T09:03:27.114Z,11.10
2018-09-11T09:05:56.568Z,10.70
2018-09-11T09:08:25.632Z,10.87
2018-09-11T09:10:54.832Z,9.50
2018-09-11T09:13:23.947Z,8.77
2018-09-11T09:15:55.118Z,9.63
2018-09-11T09:18:24.191Z,11.80
2018-09-11T09:20:52.704Z,8.83
2018-09-11T09:23:21.032Z,10.47
2018-09-11T09:25:49.527Z,11.37
2018-09-11T09:28:18.275Z,12.57
2018-09-11T09:30:46.741Z,10.30
2018-09-11T09:33:15.088Z,10.40
2018-09-11T09:35:43.502Z,10.93
2018-09-11T09:38:11.847Z,9.27
2018-09-11T09:40:40.196Z,12.90
2018-09-11T09:43:08.559Z,13.73
2018-09-11T09:45:36.972Z,11.03
2018-09-11T09:48:05.412Z,12.10
2018-09-11T09:50:33.947Z,9.63
2018-09-11T09:53:02.451Z,9.73
2018-09-11T09:55:30.901Z,9.00
2018-09-11T09:57:59.320Z,6.50
2018-09-11T10:00:33.230Z,11.00
2018-09-11T10:03:01.674Z,12.33
2018-09-11T10:05:30.316Z,9.03
2018-09-11T10:07:58.726Z,10.97
2018-09-11T10:10:27.306Z,11.27
2018-09-11T10:12:56.343Z,14.00
2018-09-11T10:15:24.764Z,10.90
2018-09-11T10:17:53.161Z,12.13
2018-09-11T10:20:27.361Z,14.27
2018-09-11T10:22:55.803Z,12.93
2018-09-11T10:25:24.507Z,9.03
2018-09-11T10:27:52.940Z,9.67
2018-09-11T10:30:21.571Z,12.63
2018-09-11T10:32:49.970Z,9.30
2018-09-11T10:35:18.535Z,8.83
2018-09-11T10:37:47.190Z,10.97
2018-09-11T10:40:15.782Z,10.93
2018-09-11T10:42:44.163Z,11.63
2018-09-11T10:45:13.341Z,7.10
2018-09-11T10:47:41.805Z,9.07
2018-09-11T10:50:10.214Z,6.93
2018-09-11T10:52:38.776Z,9.93
2018-09-11T10:55:07.455Z,10.17
2018-09-11T10:57:35.835Z,7.67
2018-09-11T11:00:04.249Z,7.13
2018-09-11T11:02:32.676Z,8.80
2018-09-11T11:05:01.114Z,8.67
2018-09-11T11:07:29.508Z,10.33
2018-09-11T11:09:57.981Z,7.73
2018-09-11T11:12:26.655Z,8.83
2018-09-11T11:14:55.299Z,8.77
2018-09-11T13:25:24.191Z,12.50
2018-09-11T13:27:52.743Z,12.03
2018-09-11T13:30:21.068Z,15.93
2018-09-11T13:35:41.324Z,15.53
2018-09-11T13:38:09.732Z,16.63
2018-09-11T13:40:38.120Z,20.90
2018-09-11T13:43:06.861Z,20.97
2018-09-11T13:45:35.272Z,16.90
2018-09-11T13:48:03.758Z,20.33
2018-09-11T13:50:32.496Z,25.10
2018-09-11T13:53:01.974Z,16.67
2018-09-11T13:55:30.231Z,15.30
2018-09-11T13:57:58.694Z,22.30
2018-09-11T14:00:27.163Z,15.80
2018-09-11T14:02:55.525Z,18.93
2018-09-11T14:05:23.956Z,15.20
2018-09-11T14:07:52.342Z,19.90
2018-09-11T14:10:20.926Z,16.50
2018-09-11T14:12:49.312Z,16.03
2018-09-11T14:15:19.937Z,18.77
2018-09-11T14:17:49.162Z,13.83
2018-09-11T14:20:17.644Z,19.63
2018-09-11T14:22:48.087Z,17.47
2018-09-11T14:25:16.458Z,19.80
2018-09-11T14:27:44.866Z,12.87
2018-09-11T14:30:13.239Z,16.40
2018-09-11T14:32:41.651Z,18.13
2018-09-11T14:35:10.074Z,19.47
2018-09-11T14:37:38.784Z,18.53
2018-09-11T14:40:07.093Z,21.87
2018-09-11T14:42:35.498Z,19.10
2018-09-11T14:45:03.831Z,16.60
2018-09-11T14:47:37.450Z,23.10
2018-09-11T14:50:06.727Z,15.73
2018-09-11T14:52:35.221Z,21.57
2018-09-11T14:55:03.570Z,19.07
2018-09-11T14:57:31.987Z,19.87
2018-09-11T15:00:00.315Z,17.93
2018-09-11T15:02:29.074Z,25.07
2018-09-11T15:04:58.360Z,16.40
2018-09-11T15:07:27.162Z,17.77
2018-09-11T15:09:55.704Z,19.07
2018-09-11T15:12:24.127Z,16.37
2018-09-11T15:14:52.711Z,16.73
2018-09-11T15:17:22.909Z,17.87
2018-09-11T15:19:51.333Z,15.07
2018-09-11T15:22:19.894Z,20.53
2018-09-11T15:24:48.203Z,18.07
2018-09-11T15:27:17.127Z,15.27
2018-09-11T15:29:45.600Z,19.07
2018-09-11T15:32:14.407Z,16.33
2018-09-11T15:34:42.933Z,17.97
2018-09-11T15:37:11.585Z,18.80
2018-09-11T15:39:39.931Z,17.00
2018-09-11T15:42:08.683Z,18.97
2018-09-11T15:44:37.093Z,15.83
2018-09-11T15:47:05.559Z,21.23
2018-09-11T15:49:34.027Z,25.63
2018-09-11T15:52:02.537Z,24.27
2018-09-11T15:54:30.894Z,19.83
2018-09-11T15:56:59.313Z,20.73
2018-09-11T15:59:27.729Z,20.23
2018-09-11T16:01:56.136Z,21.83
2018-09-11T16:04:24.719Z,22.77
2018-09-11T16:06:53.525Z,15.07
2018-09-11T16:09:26.634Z,25.50
2018-09-11T16:11:55.063Z,21.00
2018-09-11T16:14:23.674Z,19.83
2018-09-11T16:16:53.145Z,20.00
2018-09-11T16:19:22.373Z,18.90
2018-09-11T16:21:51.258Z,25.30
2018-09-11T16:24:20.063Z,18.30
2018-09-11T16:29:35.017Z,22.43
2018-09-11T16:32:03.897Z,21.00
2018-09-11T16:34:33.830Z,24.90
2018-09-11T16:37:02.927Z,15.40
2018-09-11T16:39:35.929Z,16.90
2018-09-11T16:42:19.908Z,17.73
2018-09-11T16:44:56.191Z,14.20
2018-09-11T16:47:24.582Z,17.60
2018-09-11T16:49:52.947Z,20.07
2018-09-11T16:52:22.354Z,20.73
2018-09-11T16:54:50.797Z,15.77
2018-09-11T16:57:19.536Z,13.00
2018-09-11T16:59:48.210Z,16.80
2018-09-11T17:02:16.697Z,15.80
2018-09-11T17:04:45.355Z,12.17
2018-09-11T17:07:13.898Z,14.90
2018-09-11T17:09:42.260Z,12.80
2018-09-11T17:12:10.733Z,12.83
2018-09-11T17:14:39.233Z,13.53
2018-09-11T17:17:19.239Z,13.07
2018-09-11T17:19:49.149Z,19.47
2018-09-11T17:22:19.929Z,16.03
2018-09-11T17:24:59.231Z,13.30
2018-09-11T17:27:27.813Z,12.90
2018-09-11T17:29:58.542Z,14.57
2018-09-11T17:32:35.172Z,14.47
2018-09-11T17:35:03.625Z,15.67
2018-09-11T17:37:32.050Z,14.67
2018-09-11T17:40:01.011Z,13.97
2018-09-11T17:42:34.249Z,20.90
2018-09-11T17:45:03.155Z,16.60
2018-09-11T17:47:52.036Z,15.93
2018-09-11T17:50:21.228Z,20.63
2018-09-11T17:52:50.871Z,14.80
2018-09-11T17:55:25.681Z,23.37
2018-09-11T17:57:54.846Z,17.40
2018-09-11T18:00:28.547Z,18.00
2018-09-11T18:03:07.010Z,14.33
2018-09-11T18:05:36.097Z,16.80
2018-09-11T18:08:05.422Z,17.60
2018-09-11T18:10:35.072Z,22.27
2018-09-11T18:13:04.885Z,23.67
2018-09-11T18:15:34.139Z,20.93
2018-09-11T18:18:06.186Z,21.00
2018-09-11T18:20:35.423Z,17.73
2018-09-11T18:23:04.457Z,26.07
2018-09-11T18:25:37.745Z,18.67
2018-09-11T18:28:07.764Z,23.10
2018-09-11T18:30:37.158Z,19.63
2018-09-11T18:33:10.756Z,24.00
2018-09-11T18:35:39.469Z,22.07
2018-09-11T18:38:08.146Z,22.20
2018-09-11T18:40:38.090Z,24.17
2018-09-11T18:43:07.614Z,27.10
2018-09-11T18:45:37.167Z,23.93
2018-09-11T18:48:06.615Z,28.10
2018-09-11T18:50:36.161Z,24.97
2018-09-11T18:53:05.227Z,19.03
2018-09-11T18:55:40.276Z,19.17
2018-09-11T18:58:08.964Z,17.47
2018-09-11T19:00:38.343Z,15.60
2018-09-11T19:03:06.833Z,19.03
2018-09-11T19:05:35.428Z,19.67
2018-09-11T19:08:04.782Z,20.67
2018-09-11T19:10:34.448Z,18.63
2018-09-11T19:13:26.276Z,19.53
2018-09-11T19:15:54.996Z,18.23
2018-09-11T19:19:05.987Z,14.33
2018-09-11T19:24:10.048Z,19.23
2018-09-11T19:26:39.666Z,21.67
2018-09-11T19:29:10.708Z,15.23
2018-09-11T19:31:48.375Z,14.77
2018-09-11T19:34:17.759Z,17.97
2018-09-11T19:36:46.816Z,15.80
2018-09-11T19:39:21.627Z,15.47
2018-09-11T19:41:51.958Z,16.40
2018-09-11T19:44:27.330Z,19.23
2018-09-11T19:46:59.204Z,15.90
2018-09-11T19:49:29.933Z,18.00
2018-09-11T19:52:00.030Z,15.60
2018-09-11T19:57:21.282Z,21.17
2018-09-11T19:59:51.365Z,23.30
2018-09-11T20:02:34.214Z,19.60
2018-09-11T20:05:25.941Z,21.87
2018-09-11T20:07:58.466Z,15.83
2018-09-11T20:10:26.897Z,19.90
2018-09-11T20:12:55.565Z,18.37
2018-09-11T20:15:23.970Z,20.17
2018-09-11T20:17:52.481Z,17.13
2018-09-11T20:20:23.938Z,21.53
2018-09-11T20:22:52.642Z,18.70
2018-09-11T20:28:19.616Z,22.67
2018-09-11T20:31:05.677Z,20.90
2018-09-11T20:33:34.081Z,15.17
2018-09-11T20:36:11.105Z,19.47
2018-09-11T20:38:51.153Z,20.07
2018-09-11T20:41:31.582Z,17.33
2018-09-11T20:44:01.239Z,22.37
2018-09-11T20:46:30.077Z,19.13
2018-09-11T20:49:06.438Z,18.57
2018-09-11T20:51:44.099Z,22.63
2018-09-11T20:54:14.357Z,20.17
2018-09-11T20:56:47.825Z,18.70
2018-09-11T21:02:28.981Z,22.87
2018-09-11T21:04:58.169Z,25.60
2018-09-11T21:07:42.076Z,19.53
2018-09-11T21:10:10.529Z,19.10
2018-09-11T21:12:40.818Z,16.67
2018-09-11T21:15:09.897Z,14.03
2018-09-11T21:17:38.417Z,16.63
2018-09-11T21:20:08.209Z,20.07
2018-09-11T21:22:37.045Z,17.63
2018-09-11T21:25:07.042Z,16.73
2018-09-11T21:27:35.568Z,15.87
2018-09-11T21:33:01.374Z,20.63
2018-09-11T21:35:34.196Z,19.83
2018-09-11T21:38:14.681Z,19.83
2018-09-11T21:41:02.329Z,20.80
2018-09-11T21:51:57.482Z,22.57
2018-09-11T21:58:31.622Z,16.30
2018-09-11T22:05:05.953Z,19.57
2018-09-11T22:11:15.610Z,17.13
2018-09-11T22:14:08.938Z,27.57
2018-09-11T22:16:51.105Z,27.60
2018-09-11T22:19:52.502Z,22.23
2018-09-11T22:22:53.037Z,27.13
2018-09-11T22:25:35.746Z,16.37
2018-09-11T22:29:28.407Z,25.73
2018-09-11T22:32:29.938Z,26.73
2018-09-11T22:37:58.366Z,29.33
2018-09-11T22:40:55.500Z,18.00
2018-09-11T22:49:04.700Z,23.90
2018-09-11T22:55:05.730Z,28.37
2018-09-11T23:45:16.670Z,26.07
2018-09-11T23:48:00.702Z,22.93
2018-09-11T23:50:29.936Z,26.20
2018-09-11T23:53:00.216Z,26.40
2018-09-11T23:55:29.228Z,21.07
2018-09-11T23:57:59.693Z,24.77
